Mukayris, Yemen
Current Conditions -  °F | °C
As of 6:00 AM on Friday 19 Dec 2014 (Local Time) from OYAA Reporting Station
Scattered Clouds Scattered Clouds  
Wind Chill: 79°   Ceiling: Unl
Heat Index: 81°   Visibility: 6mi
Dew Point: 66°   Wind: 15mph
Humidity: 65%   Direction: 110°ESE
Pressure: 30.06"   Gusts: NA
Location:  13.94°N, 45.67°E
Report Text: OYAA 190300Z 11013KT 9999 SCT018 26/19 Q1018
Loading
Personal Weather Stations






























Interactive Weather Map New forecast layout! Learn more

10-Day Weather Forecast

Advertisements
Track Severe Weather on mobile